Time;durP1;ratioP1;P1;durP2;ratioP2;P2;SDS_P1;SDS_P2;PMS_P1;PMS_P2;Temp;Humidity;BMP_temperature;BMP_pressure;BME280_temperature;BME280_humidity;BME280_pressure;Samples;Min_cycle;Max_cycle;Signal;HPM_P1;HPM_P2
2023/11/14 00:02:15;;;;;;;8.57;2.17;;;12.20;99.90;;;;;;5054351;28;20033;-89
2023/11/14 00:04:41;;;;;;;8.55;2.35;;;12.20;99.90;;;;;;5046538;28;20032;-91
2023/11/14 00:07:07;;;;;;;8.98;2.72;;;12.20;99.90;;;;;;5045285;28;20074;-90
2023/11/14 00:09:33;;;;;;;8.10;2.63;;;12.10;99.90;;;;;;5036742;28;20112;-92
2023/11/14 00:11:59;;;;;;;6.13;3.28;;;12.10;99.90;;;;;;5037293;28;20081;-91
2023/11/14 00:14:25;;;;;;;7.43;2.25;;;12.00;99.90;;;;;;5037750;28;20033;-92
2023/11/14 00:16:51;;;;;;;7.13;2.65;;;12.00;99.90;;;;;;5037672;28;20036;-91
2023/11/14 00:19:18;;;;;;;7.43;2.67;;;12.00;99.90;;;;;;5037999;28;20090;-90
2023/11/14 00:21:45;;;;;;;7.25;3.08;;;12.00;99.90;;;;;;5037976;28;20037;-90
2023/11/14 00:24:10;;;;;;;9.38;2.63;;;12.00;99.90;;;;;;5046322;28;20041;-90
2023/11/14 00:26:36;;;;;;;9.93;2.60;;;11.90;99.90;;;;;;5037265;28;20025;-91
2023/11/14 00:29:02;;;;;;;8.25;1.85;;;11.90;99.90;;;;;;5053965;28;20044;-90
2023/11/14 00:31:28;;;;;;;6.78;1.75;;;11.90;99.90;;;;;;5049072;28;20427;-89
2023/11/14 00:33:54;;;;;;;5.97;1.98;;;11.90;99.90;;;;;;5029308;28;20029;-89
2023/11/14 00:36:19;;;;;;;7.45;2.13;;;11.80;99.90;;;;;;5037421;28;20032;-91
2023/11/14 00:38:45;;;;;;;4.78;1.65;;;11.80;99.90;;;;;;5035608;28;20099;-91
2023/11/14 00:41:11;;;;;;;5.75;1.42;;;11.80;99.90;;;;;;5039239;28;20048;-89
2023/11/14 00:43:37;;;;;;;8.68;1.88;;;11.80;99.90;;;;;;5042473;28;20032;-93
2023/11/14 00:46:11;;;;;;;8.25;2.67;;;11.80;99.90;;;;;;5043125;28;20082;-90
2023/11/14 00:48:36;;;;;;;10.25;1.90;;;11.80;99.90;;;;;;5042366;28;20104;-93
2023/11/14 00:51:02;;;;;;;9.95;2.63;;;11.80;99.90;;;;;;5049717;28;20048;-90
2023/11/14 00:53:28;;;;;;;7.30;2.05;;;11.80;99.90;;;;;;5044899;28;20026;-90
2023/11/14 00:55:55;;;;;;;5.38;1.67;;;11.70;99.90;;;;;;5044573;28;20039;-91
2023/11/14 00:58:21;;;;;;;8.20;1.83;;;11.70;99.90;;;;;;5033364;28;20053;-90
2023/11/14 01:00:46;;;;;;;3.80;1.70;;;11.70;99.90;;;;;;5036680;28;20103;-91
2023/11/14 01:03:12;;;;;;;5.30;2.47;;;11.60;99.90;;;;;;5039328;28;20416;-90
2023/11/14 01:05:38;;;;;;;7.25;1.98;;;11.60;99.90;;;;;;5036623;28;20476;-90
2023/11/14 01:08:04;;;;;;;8.35;2.85;;;11.70;99.90;;;;;;5036633;28;20428;-90
2023/11/14 01:10:30;;;;;;;7.13;2.60;;;11.70;99.90;;;;;;5038937;28;20081;-91
2023/11/14 01:12:59;;;;;;;8.30;1.80;;;11.80;99.90;;;;;;5039086;28;20021;-91
2023/11/14 01:15:28;;;;;;;8.63;1.70;;;11.80;99.90;;;;;;5037240;28;20391;-92
2023/11/14 01:17:54;;;;;;;6.05;2.10;;;11.80;99.90;;;;;;5035607;28;20103;-90
2023/11/14 01:20:20;;;;;;;5.78;2.38;;;11.80;99.90;;;;;;5047349;28;20029;-91
2023/11/14 01:22:46;;;;;;;7.10;2.38;;;11.80;99.90;;;;;;5041342;28;20021;-92
2023/11/14 01:25:11;;;;;;;5.65;2.05;;;11.90;99.90;;;;;;5036108;28;20014;-89
2023/11/14 01:27:38;;;;;;;7.70;1.95;;;11.90;99.90;;;;;;5043740;28;20512;-88
2023/11/14 01:30:05;;;;;;;10.85;2.95;;;11.80;99.90;;;;;;5033976;28;20502;-91
2023/11/14 01:32:31;;;;;;;7.72;2.05;;;11.80;99.90;;;;;;5041094;28;20025;-91
2023/11/14 01:34:57;;;;;;;6.63;2.03;;;11.80;99.90;;;;;;5048299;28;20029;-88
2023/11/14 01:37:22;;;;;;;5.95;2.13;;;11.70;99.90;;;;;;5035591;28;20075;-90
2023/11/14 01:39:48;;;;;;;11.30;2.75;;;11.80;99.90;;;;;;5043448;28;20047;-91
2023/11/14 01:42:14;;;;;;;5.35;1.40;;;11.80;99.90;;;;;;5040984;28;20076;-90
2023/11/14 01:44:40;;;;;;;6.78;1.77;;;11.70;99.90;;;;;;5042328;28;20021;-91
2023/11/14 01:47:06;;;;;;;9.50;2.15;;;11.70;99.90;;;;;;5037470;28;20060;-90
2023/11/14 01:49:32;;;;;;;11.18;3.05;;;11.70;99.90;;;;;;5035810;28;20030;-89
2023/11/14 01:51:59;;;;;;;5.32;2.05;;;11.70;99.90;;;;;;5044870;28;20487;-90
2023/11/14 01:54:24;;;;;;;8.15;2.78;;;11.60;99.90;;;;;;5053778;28;20458;-90
2023/11/14 01:56:50;;;;;;;6.68;2.60;;;11.60;99.90;;;;;;5039886;28;20026;-89
2023/11/14 01:59:17;;;;;;;7.78;1.65;;;11.60;99.90;;;;;;5043998;28;20503;-90
2023/11/14 02:01:43;;;;;;;9.80;2.70;;;11.60;99.90;;;;;;5035682;28;20044;-90
2023/11/14 02:04:13;;;;;;;10.05;2.78;;;11.60;99.90;;;;;;5040987;28;20643;-92
2023/11/14 02:06:39;;;;;;;7.80;2.35;;;11.50;99.90;;;;;;5040684;28;20116;-89
2023/11/14 02:09:08;;;;;;;10.70;3.03;;;11.50;99.90;;;;;;5036443;28;20022;-90
2023/11/14 02:11:35;;;;;;;12.23;2.65;;;11.50;99.90;;;;;;5041736;28;20304;-89
2023/11/14 02:14:00;;;;;;;7.30;1.73;;;11.60;99.90;;;;;;5039429;28;20496;-90
2023/11/14 02:16:43;;;;;;;7.38;1.83;;;11.60;99.90;;;;;;5036474;28;20117;-92
2023/11/14 02:19:08;;;;;;;5.78;1.77;;;11.60;99.90;;;;;;5042081;28;20033;-91
2023/11/14 02:21:34;;;;;;;9.20;2.03;;;11.70;99.90;;;;;;5057248;28;20387;-89
2023/11/14 02:24:02;;;;;;;7.13;2.17;;;11.60;99.90;;;;;;5039160;28;20033;-91
2023/11/14 02:26:28;;;;;;;6.95;2.60;;;11.50;99.90;;;;;;5032725;28;20048;-92
2023/11/14 02:28:59;;;;;;;6.45;1.88;;;11.50;99.90;;;;;;5049937;28;20022;-91
2023/11/14 02:31:24;;;;;;;10.95;1.80;;;11.50;99.90;;;;;;5039595;28;20026;-90
2023/11/14 02:33:50;;;;;;;4.93;2.05;;;11.40;99.90;;;;;;5038884;28;20025;-91
2023/11/14 02:36:16;;;;;;;6.45;2.05;;;11.40;99.90;;;;;;5047103;28;20026;-96
2023/11/14 02:38:41;;;;;;;5.95;2.45;;;11.30;99.90;;;;;;5038490;28;20510;-88
2023/11/14 02:41:07;;;;;;;4.75;1.42;;;11.30;99.90;;;;;;5039360;28;20029;-89
2023/11/14 02:43:33;;;;;;;6.03;2.80;;;11.20;99.90;;;;;;5048000;28;20032;-90
2023/11/14 02:45:58;;;;;;;8.45;2.58;;;11.20;99.90;;;;;;5038729;28;20060;-92
2023/11/14 02:48:24;;;;;;;9.73;2.15;;;11.10;99.90;;;;;;5037508;28;20117;-89
2023/11/14 02:50:56;;;;;;;6.05;1.90;;;11.20;99.90;;;;;;5045415;28;20445;-89
2023/11/14 02:53:22;;;;;;;7.78;3.60;;;11.20;99.90;;;;;;5038658;28;20025;-91
2023/11/14 02:55:52;;;;;;;5.63;2.58;;;11.10;99.90;;;;;;5038048;28;20029;-90
2023/11/14 02:58:19;;;;;;;5.28;2.03;;;11.20;99.90;;;;;;5053900;28;20029;-89
2023/11/14 03:00:46;;;;;;;6.68;1.77;;;11.10;99.90;;;;;;5038491;28;20579;-89
2023/11/14 03:03:12;;;;;;;8.07;1.75;;;11.10;99.90;;;;;;5046211;28;20099;-91
2023/11/14 03:05:38;;;;;;;7.60;3.17;;;11.10;99.90;;;;;;5037536;28;20022;-91
2023/11/14 03:08:04;;;;;;;7.50;2.33;;;11.10;99.90;;;;;;5045044;28;20025;-88
2023/11/14 03:10:33;;;;;;;7.40;2.40;;;11.10;99.90;;;;;;5051314;28;20402;-89
2023/11/14 03:12:59;;;;;;;8.02;1.83;;;11.10;99.90;;;;;;5041871;28;20064;-90
2023/11/14 03:15:29;;;;;;;9.40;2.35;;;11.20;99.90;;;;;;5039366;28;20083;-89
2023/11/14 03:17:58;;;;;;;6.72;1.88;;;11.20;99.90;;;;;;5055588;28;20475;-90
2023/11/14 03:20:27;;;;;;;6.78;2.17;;;11.20;99.90;;;;;;5046470;28;20037;-90
2023/11/14 03:22:54;;;;;;;7.85;3.15;;;11.30;99.90;;;;;;5038630;28;20108;-88
2023/11/14 03:25:21;;;;;;;6.60;2.28;;;11.20;99.90;;;;;;5039266;28;20021;-89
2023/11/14 03:27:47;;;;;;;6.40;1.85;;;11.20;99.90;;;;;;5038628;28;20109;-90
2023/11/14 03:30:13;;;;;;;7.00;1.95;;;11.20;99.90;;;;;;5037116;28;20396;-90
2023/11/14 03:32:39;;;;;;;7.32;1.42;;;11.20;99.90;;;;;;5039549;28;20030;-89
2023/11/14 03:35:06;;;;;;;8.75;2.15;;;11.30;99.90;;;;;;5039649;28;20018;-91
2023/11/14 03:37:32;;;;;;;9.15;1.67;;;11.40;99.90;;;;;;5045434;28;20384;-88
2023/11/14 03:39:58;;;;;;;6.07;1.98;;;11.50;99.90;;;;;;5039272;28;20098;-91
2023/11/14 03:42:24;;;;;;;8.27;1.67;;;11.50;99.90;;;;;;5047914;28;20500;-90
2023/11/14 03:44:49;;;;;;;7.88;2.20;;;11.60;99.90;;;;;;5039513;28;20021;-90
2023/11/14 03:47:15;;;;;;;7.35;2.10;;;11.60;99.90;;;;;;5047053;28;20472;-90
2023/11/14 03:49:41;;;;;;;7.70;2.00;;;11.50;99.90;;;;;;5038615;28;20037;-90
2023/11/14 03:52:09;;;;;;;4.65;1.40;;;11.50;99.90;;;;;;5038550;28;20503;-91
2023/11/14 03:54:38;;;;;;;6.32;1.80;;;11.60;99.90;;;;;;5038522;28;20503;-91
2023/11/14 03:57:04;;;;;;;4.60;1.58;;;11.60;99.90;;;;;;5035437;28;20053;-89
2023/11/14 03:59:29;;;;;;;7.70;1.70;;;11.70;99.90;;;;;;5031016;28;20125;-90
2023/11/14 04:01:55;;;;;;;11.35;2.38;;;11.70;99.90;;;;;;5046158;28;20027;-91
2023/11/14 04:04:20;;;;;;;7.15;2.13;;;11.60;99.90;;;;;;5049920;28;20047;-90
2023/11/14 04:06:46;;;;;;;8.57;3.03;;;11.50;99.90;;;;;;5051397;28;20028;-89
2023/11/14 04:09:12;;;;;;;6.35;2.78;;;11.60;99.90;;;;;;5048114;28;20021;-91
2023/11/14 04:11:48;;;;;;;4.18;2.40;;;11.60;99.90;;;;;;5047118;28;20536;-92
2023/11/14 04:14:14;;;;;;;6.63;1.88;;;11.70;99.90;;;;;;5054180;28;20395;-90
2023/11/14 04:16:40;;;;;;;4.30;2.35;;;11.70;99.90;;;;;;5035237;28;20024;-92
2023/11/14 04:19:05;;;;;;;3.47;1.63;;;11.60;99.90;;;;;;5036880;28;20476;-88
2023/11/14 04:21:34;;;;;;;4.70;1.77;;;11.60;99.90;;;;;;5037971;28;20022;-88
2023/11/14 04:24:00;;;;;;;6.70;2.65;;;11.50;99.90;;;;;;5038762;28;20080;-92
2023/11/14 04:26:26;;;;;;;7.55;1.85;;;11.50;99.90;;;;;;5038135;28;20078;-90
2023/11/14 04:28:52;;;;;;;6.25;1.80;;;11.50;99.90;;;;;;5038847;28;20621;-88
2023/11/14 04:31:26;;;;;;;5.72;2.42;;;11.50;99.90;;;;;;5047065;28;20021;-90
2023/11/14 04:33:53;;;;;;;6.40;1.63;;;11.50;99.90;;;;;;5051137;28;20036;-90
2023/11/14 04:36:19;;;;;;;6.53;2.90;;;11.40;99.90;;;;;;5047747;28;20026;-89
2023/11/14 04:38:48;;;;;;;7.38;3.00;;;11.40;99.90;;;;;;5049646;28;20087;-90
2023/11/14 04:41:18;;;;;;;10.88;2.03;;;11.50;99.90;;;;;;5051577;28;20021;-88
2023/11/14 04:43:43;;;;;;;6.78;1.70;;;11.50;99.90;;;;;;5037441;28;20047;-89
2023/11/14 04:46:09;;;;;;;8.57;2.42;;;11.50;99.90;;;;;;5047169;28;20033;-91
2023/11/14 04:48:35;;;;;;;5.30;2.25;;;11.60;99.90;;;;;;5047999;28;20025;-92
2023/11/14 04:51:00;;;;;;;7.28;2.10;;;11.70;99.90;;;;;;5044458;28;20033;-89
2023/11/14 04:53:26;;;;;;;7.30;1.95;;;11.60;99.90;;;;;;5040660;28;20090;-90
2023/11/14 04:55:51;;;;;;;5.85;2.15;;;11.60;99.90;;;;;;5039285;28;20029;-91
2023/11/14 04:58:20;;;;;;;4.45;1.75;;;11.60;99.90;;;;;;5042068;28;20036;-89
2023/11/14 05:00:45;;;;;;;7.38;4.20;;;11.50;99.90;;;;;;5043779;28;20026;-90
2023/11/14 05:03:11;;;;;;;8.52;2.10;;;11.50;99.90;;;;;;5045710;28;20036;-92
2023/11/14 05:05:36;;;;;;;5.00;1.75;;;11.60;99.90;;;;;;5052112;28;20434;-91
2023/11/14 05:08:04;;;;;;;7.80;1.80;;;11.60;99.90;;;;;;5039209;28;20021;-91
2023/11/14 05:10:30;;;;;;;9.98;2.25;;;11.60;99.90;;;;;;5043769;28;20033;-91
2023/11/14 05:12:56;;;;;;;7.70;2.58;;;11.50;99.90;;;;;;5044561;28;20037;-92
2023/11/14 05:15:22;;;;;;;5.07;1.67;;;11.60;99.90;;;;;;5049450;28;20064;-91
2023/11/14 05:17:48;;;;;;;6.15;3.22;;;11.60;99.90;;;;;;5046556;28;20032;-92
2023/11/14 05:20:13;;;;;;;6.32;1.92;;;11.60;99.90;;;;;;5045708;28;20030;-89
2023/11/14 05:22:39;;;;;;;10.60;2.05;;;11.60;99.90;;;;;;5043460;28;20037;-90
2023/11/14 05:25:08;;;;;;;6.95;3.53;;;11.70;99.90;;;;;;5037814;28;20045;-88
2023/11/14 05:27:36;;;;;;;12.73;2.65;;;11.70;99.90;;;;;;5036944;28;20036;-89
2023/11/14 05:30:04;;;;;;;7.57;2.28;;;11.70;99.90;;;;;;5038868;28;20081;-87
2023/11/14 05:32:29;;;;;;;7.15;2.45;;;11.60;99.90;;;;;;5052711;28;20068;-91
2023/11/14 05:34:55;;;;;;;6.53;2.55;;;11.60;99.90;;;;;;5055951;28;20025;-89
2023/11/14 05:37:20;;;;;;;6.47;2.35;;;11.60;99.90;;;;;;5037322;28;20025;-90
2023/11/14 05:39:46;;;;;;;8.05;1.52;;;11.50;99.90;;;;;;5045303;28;20403;-93
2023/11/14 05:42:12;;;;;;;5.88;2.17;;;11.40;99.90;;;;;;5054133;28;20025;-89
2023/11/14 05:44:37;;;;;;;24.70;2.58;;;11.40;99.90;;;;;;5050024;28;20259;-89
2023/11/14 05:47:03;;;;;;;8.27;2.53;;;11.40;99.90;;;;;;5039241;28;20559;-89
2023/11/14 05:49:29;;;;;;;4.65;2.08;;;11.40;99.90;;;;;;5044207;28;20028;-90
2023/11/14 05:51:55;;;;;;;4.85;1.83;;;11.40;99.90;;;;;;5045054;28;20044;-89
2023/11/14 05:54:21;;;;;;;7.32;2.63;;;11.40;99.90;;;;;;5019305;28;20033;-91
2023/11/14 05:56:47;;;;;;;9.13;2.33;;;11.40;99.90;;;;;;5036066;28;20460;-91
2023/11/14 05:59:12;;;;;;;5.40;2.58;;;11.40;99.90;;;;;;5036429;28;20075;-89
2023/11/14 06:01:38;;;;;;;9.15;3.08;;;11.40;99.90;;;;;;5038935;28;20037;-88
2023/11/14 06:04:04;;;;;;;7.47;1.90;;;11.40;99.90;;;;;;5040496;28;20475;-87
2023/11/14 06:06:29;;;;;;;8.63;1.70;;;11.40;99.90;;;;;;5049560;28;20025;-89
2023/11/14 06:08:55;;;;;;;6.57;1.90;;;11.40;99.90;;;;;;5051375;28;20025;-88
2023/11/14 06:11:21;;;;;;;5.30;2.17;;;11.50;99.90;;;;;;5050702;28;20029;-88
2023/11/14 06:13:46;;;;;;;8.23;1.98;;;11.50;99.90;;;;;;5049264;28;20025;-89
2023/11/14 06:16:12;;;;;;;5.65;2.20;;;11.50;99.90;;;;;;5052248;28;20404;-89
2023/11/14 06:18:38;;;;;;;6.35;2.25;;;11.50;99.90;;;;;;5051922;28;20379;-89
2023/11/14 06:21:06;;;;;;;4.65;1.92;;;11.70;98.40;;;;;;5041606;28;20025;-88
2023/11/14 06:23:32;;;;;;;5.60;1.73;;;11.70;98.50;;;;;;5048316;28;20049;-90
2023/11/14 06:25:58;;;;;;;6.28;2.20;;;11.60;98.50;;;;;;5043137;28;20136;-90
2023/11/14 06:28:24;;;;;;;3.97;1.30;;;11.70;97.40;;;;;;5044303;28;20095;-89
2023/11/14 06:30:49;;;;;;;7.03;1.95;;;11.70;97.00;;;;;;5050652;28;20525;-86
2023/11/14 06:33:15;;;;;;;4.70;1.75;;;11.80;96.50;;;;;;5046670;28;20071;-89
2023/11/14 06:35:41;;;;;;;5.75;2.63;;;11.70;96.40;;;;;;5039447;28;20365;-93
2023/11/14 06:38:06;;;;;;;4.10;1.92;;;11.70;96.10;;;;;;5040209;28;20076;-88
2023/11/14 06:40:32;;;;;;;6.70;1.45;;;11.90;94.80;;;;;;5039914;28;20034;-90
2023/11/14 06:42:58;;;;;;;5.85;1.58;;;11.80;95.70;;;;;;5038428;28;20275;-89
2023/11/14 06:45:23;;;;;;;4.35;1.63;;;11.80;95.30;;;;;;5038121;28;20085;-91
2023/11/14 06:47:49;;;;;;;4.18;1.75;;;11.70;95.60;;;;;;5044861;28;20061;-89
2023/11/14 06:50:15;;;;;;;6.30;1.60;;;11.70;96.20;;;;;;5024914;28;20179;-89
2023/11/14 06:52:41;;;;;;;3.83;1.65;;;11.60;96.60;;;;;;5029530;28;20033;-89
2023/11/14 06:55:07;;;;;;;3.60;1.35;;;11.60;96.40;;;;;;5028097;28;20033;-90
2023/11/14 06:57:32;;;;;;;2.42;1.40;;;11.50;97.30;;;;;;5029535;28;20622;-94
2023/11/14 07:00:00;;;;;;;5.32;1.65;;;11.50;97.30;;;;;;5026224;28;20124;-91
2023/11/14 07:02:26;;;;;;;;;;;11.40;98.10;;;;;;5029732;28;20029;-89
2023/11/14 07:04:53;;;;;;;4.05;2.03;;;11.30;98.60;;;;;;5030422;28;19917;-90
2023/11/14 07:07:19;;;;;;;2.65;2.00;;;11.30;99.00;;;;;;5030847;28;20399;-92
2023/11/14 07:09:44;;;;;;;7.38;1.95;;;11.20;99.80;;;;;;5027157;28;20022;-89
2023/11/14 07:12:10;;;;;;;3.03;1.23;;;11.20;99.90;;;;;;5025699;28;20041;-90
2023/11/14 07:14:36;;;;;;;3.35;1.08;;;11.20;99.90;;;;;;5031027;28;20055;-92
2023/11/14 07:17:01;;;;;;;4.68;1.67;;;11.20;99.90;;;;;;5029180;28;20037;-89
2023/11/14 07:19:27;;;;;;;3.30;1.52;;;11.20;99.90;;;;;;5026820;28;20041;-89
2023/11/14 07:21:53;;;;;;;5.68;1.60;;;11.30;99.20;;;;;;5025666;28;20025;-90
2023/11/14 07:24:19;;;;;;;3.38;1.45;;;11.30;99.20;;;;;;5030045;28;20029;-90
2023/11/14 07:26:44;;;;;;;4.45;1.27;;;11.30;99.90;;;;;;5033355;28;20033;-89
2023/11/14 07:29:11;;;;;;;5.93;1.15;;;11.30;99.70;;;;;;5033682;28;20029;-93
2023/11/14 07:31:36;;;;;;;5.15;1.60;;;11.30;99.00;;;;;;5033201;28;20091;-89
2023/11/14 07:34:03;;;;;;;4.47;1.60;;;11.30;98.60;;;;;;5035423;28;20033;-89
2023/11/14 07:36:35;;;;;;;4.18;1.65;;;11.30;98.40;;;;;;5038975;28;20691;-90
2023/11/14 07:39:01;;;;;;;4.78;1.25;;;11.40;97.70;;;;;;5034533;28;20036;-89
2023/11/14 07:41:26;;;;;;;3.25;1.42;;;11.40;96.50;;;;;;5034731;28;20026;-88
2023/11/14 07:43:52;;;;;;;2.75;1.42;;;11.50;97.30;;;;;;5029604;28;20179;-89
2023/11/14 07:46:18;;;;;;;3.53;1.13;;;11.50;96.40;;;;;;5034517;28;20037;-91
2023/11/14 07:48:43;;;;;;;3.20;0.88;;;11.60;97.10;;;;;;5032863;28;20048;-91
2023/11/14 07:51:09;;;;;;;3.33;1.15;;;11.60;97.60;;;;;;5029219;28;20529;-86
2023/11/14 07:53:35;;;;;;;4.82;1.33;;;11.70;97.00;;;;;;5030686;28;20807;-91
2023/11/14 07:56:01;;;;;;;3.17;1.02;;;11.70;97.50;;;;;;5031657;28;20329;-90
2023/11/14 07:58:29;;;;;;;4.95;1.52;;;11.70;97.80;;;;;;5031284;28;20484;-88
2023/11/14 08:00:56;;;;;;;;;;;11.70;98.70;;;;;;5030827;28;20029;-89
2023/11/14 08:03:23;;;;;;;3.88;1.33;;;11.70;99.90;;;;;;5037167;28;20347;-89
2023/11/14 08:05:48;;;;;;;1.98;1.05;;;11.70;99.90;;;;;;5031742;28;20578;-88
2023/11/14 08:08:14;;;;;;;2.08;1.48;;;11.60;99.90;;;;;;5030636;28;20147;-89
2023/11/14 08:10:40;;;;;;;1.83;1.35;;;11.70;99.90;;;;;;5033020;28;20025;-89
2023/11/14 08:13:07;;;;;;;4.57;1.65;;;11.60;99.90;;;;;;5033049;28;20097;-90
2023/11/14 08:15:33;;;;;;;4.65;1.73;;;11.60;99.90;;;;;;5034125;28;20045;-88
2023/11/14 08:17:59;;;;;;;4.03;1.00;;;11.50;99.90;;;;;;5034299;28;20067;-89
2023/11/14 08:20:27;;;;;;;5.32;1.80;;;11.60;99.90;;;;;;5031818;28;20113;-88
2023/11/14 08:22:54;;;;;;;2.70;1.65;;;11.60;99.90;;;;;;5034236;28;20373;-89
2023/11/14 08:25:20;;;;;;;2.33;0.98;;;11.60;99.90;;;;;;5029254;28;20040;-92
2023/11/14 08:27:46;;;;;;;2.58;1.60;;;11.70;99.90;;;;;;5029614;28;20021;-90
2023/11/14 08:30:13;;;;;;;2.95;1.02;;;11.70;99.90;;;;;;5030090;28;20396;-90
2023/11/14 08:32:42;;;;;;;4.38;2.42;;;11.80;99.90;;;;;;5030675;28;20144;-90
2023/11/14 08:35:09;;;;;;;2.20;0.98;;;11.80;99.90;;;;;;5033427;28;20159;-89
2023/11/14 08:37:35;;;;;;;4.07;1.73;;;11.80;99.10;;;;;;5031949;28;20025;-90
2023/11/14 08:40:01;;;;;;;2.10;1.27;;;11.80;99.60;;;;;;5027830;28;20415;-91
2023/11/14 08:42:27;;;;;;;3.28;1.33;;;11.80;99.40;;;;;;5030379;28;20036;-93
2023/11/14 08:44:53;;;;;;;3.53;1.33;;;11.80;98.80;;;;;;5031343;28;20029;-90
2023/11/14 08:47:19;;;;;;;2.80;1.13;;;11.80;97.10;;;;;;5030794;28;20029;-91
2023/11/14 08:49:44;;;;;;;3.25;1.45;;;11.80;97.50;;;;;;5036667;28;20043;-87
2023/11/14 08:52:10;;;;;;;3.95;1.60;;;11.90;97.70;;;;;;5035738;28;20188;-89
2023/11/14 08:54:38;;;;;;;2.58;1.35;;;11.90;98.00;;;;;;5032971;28;20025;-88
2023/11/14 08:57:04;;;;;;;1.20;1.00;;;11.90;97.00;;;;;;5028085;28;20033;-89
2023/11/14 08:59:30;;;;;;;4.63;1.08;;;11.90;97.50;;;;;;5034015;28;20025;-89
2023/11/14 09:01:56;;;;;;;3.67;1.25;;;12.00;95.40;;;;;;5030263;28;20575;-88
2023/11/14 09:04:22;;;;;;;2.67;0.82;;;12.10;97.30;;;;;;5033252;28;20403;-90
2023/11/14 09:06:48;;;;;;;3.90;1.92;;;12.20;95.70;;;;;;5031148;28;20089;-88
2023/11/14 09:09:18;;;;;;;1.00;0.77;;;12.20;96.10;;;;;;5030350;28;20028;-89
2023/11/14 09:11:44;;;;;;;2.42;1.20;;;12.10;95.20;;;;;;5030122;28;20033;-90
2023/11/14 09:14:09;;;;;;;2.72;1.33;;;12.20;96.50;;;;;;5033178;28;20137;-89
2023/11/14 09:16:35;;;;;;;1.50;1.17;;;12.10;96.00;;;;;;5033723;28;20029;-91
2023/11/14 09:19:01;;;;;;;3.13;1.02;;;12.10;96.20;;;;;;5031198;28;20033;-92
2023/11/14 09:21:27;;;;;;;2.30;0.88;;;12.10;97.10;;;;;;5031080;28;20037;-89
2023/11/14 09:23:54;;;;;;;1.73;1.27;;;12.20;96.10;;;;;;5029095;28;20033;-90
2023/11/14 09:26:21;;;;;;;2.47;1.10;;;12.10;96.10;;;;;;5029394;28;20013;-89
2023/11/14 09:28:47;;;;;;;1.55;1.25;;;12.30;95.30;;;;;;5030663;28;20033;-89
2023/11/14 09:31:12;;;;;;;4.22;1.42;;;12.30;96.10;;;;;;5033093;28;20144;-90
2023/11/14 09:33:42;;;;;;;2.45;1.25;;;12.30;96.00;;;;;;5031118;28;20045;-90
2023/11/14 09:36:09;;;;;;;3.13;1.40;;;12.40;95.20;;;;;;5030680;28;20045;-89
2023/11/14 09:38:35;;;;;;;2.33;0.98;;;12.30;94.80;;;;;;5033848;28;20488;-94
2023/11/14 09:41:02;;;;;;;3.08;0.90;;;12.30;95.40;;;;;;5032074;28;20037;-89
2023/11/14 09:43:32;;;;;;;3.08;1.52;;;12.30;95.50;;;;;;5034043;28;20076;-90
2023/11/14 09:45:58;;;;;;;2.97;1.00;;;12.20;96.80;;;;;;5034210;28;20021;-92
2023/11/14 09:48:25;;;;;;;2.60;1.30;;;12.20;97.60;;;;;;5038417;28;20121;-90
2023/11/14 09:50:55;;;;;;;2.92;1.42;;;12.20;97.50;;;;;;5029456;28;20037;-90
2023/11/14 09:53:23;;;;;;;2.75;0.82;;;12.20;97.20;;;;;;5031409;28;20041;-95
2023/11/14 09:55:53;;;;;;;2.20;1.50;;;12.20;97.30;;;;;;5035954;28;20029;-93
2023/11/14 09:58:22;;;;;;;2.38;1.48;;;12.20;98.00;;;;;;5030669;28;20064;-90
2023/11/14 10:00:51;;;;;;;2.17;1.52;;;12.20;97.00;;;;;;5027038;28;20033;-92
2023/11/14 10:03:18;;;;;;;4.97;1.10;;;12.20;97.10;;;;;;5031051;28;20029;-93
2023/11/14 10:05:44;;;;;;;2.95;1.38;;;12.20;96.70;;;;;;5031555;28;20025;-92
2023/11/14 10:08:14;;;;;;;1.45;1.10;;;12.20;97.00;;;;;;5030515;28;20107;-89
2023/11/14 10:11:02;;;;;;;3.20;1.35;;;12.20;97.20;;;;;;5027616;28;20077;-91
2023/11/14 10:13:27;;;;;;;2.00;0.95;;;12.30;97.30;;;;;;5032884;28;20571;-88
2023/11/14 10:15:53;;;;;;;2.53;1.33;;;12.20;96.90;;;;;;5035748;28;20033;-89
2023/11/14 10:18:29;;;;;;;1.63;1.08;;;12.20;97.50;;;;;;5051349;28;20056;-89
2023/11/14 10:20:56;;;;;;;4.35;1.27;;;12.20;96.80;;;;;;5031683;28;20448;-90
2023/11/14 10:23:34;;;;;;;3.25;1.55;;;12.30;96.90;;;;;;5040863;28;20033;-92
2023/11/14 10:26:08;;;;;;;3.00;1.73;;;12.20;97.20;;;;;;5035345;28;20021;-90
2023/11/14 10:28:37;;;;;;;3.75;1.60;;;12.20;98.00;;;;;;5033049;28;20033;-92
2023/11/14 10:31:03;;;;;;;3.25;1.48;;;12.20;97.80;;;;;;5015642;28;20105;-90
2023/11/14 10:33:39;;;;;;;6.10;1.90;;;12.20;98.50;;;;;;5038673;28;20046;-91
2023/11/14 10:36:08;;;;;;;3.58;1.13;;;12.20;97.60;;;;;;5041017;28;20048;-90
2023/11/14 10:38:34;;;;;;;1.83;1.42;;;12.20;97.90;;;;;;5032015;28;20033;-90
2023/11/14 10:41:00;;;;;;;8.90;1.60;;;12.20;97.30;;;;;;5031708;28;20034;-91
2023/11/14 10:43:31;;;;;;;2.53;1.30;;;12.20;96.70;;;;;;5032995;28;20072;-93
2023/11/14 10:46:00;;;;;;;2.35;0.93;;;12.30;97.10;;;;;;5033378;28;20380;-90
2023/11/14 10:48:29;;;;;;;2.83;1.00;;;12.30;97.50;;;;;;5033055;28;20049;-92
2023/11/14 10:50:56;;;;;;;4.68;1.00;;;12.30;97.30;;;;;;5032033;28;20084;-91
2023/11/14 10:53:24;;;;;;;3.88;1.33;;;12.30;96.30;;;;;;5037312;28;20112;-91
2023/11/14 10:55:50;;;;;;;1.42;1.15;;;12.30;96.40;;;;;;5030306;28;20018;-88
2023/11/14 10:58:17;;;;;;;3.17;1.63;;;12.30;97.00;;;;;;5030063;28;20037;-95
2023/11/14 11:00:43;;;;;;;1.80;1.13;;;12.30;96.70;;;;;;5032801;28;20029;-91
2023/11/14 11:03:09;;;;;;;3.33;1.83;;;12.30;96.10;;;;;;5046831;28;20506;-90
2023/11/14 11:05:35;;;;;;;1.80;1.00;;;12.30;96.00;;;;;;5031193;28;20029;-90
2023/11/14 11:08:04;;;;;;;4.65;1.67;;;12.40;95.90;;;;;;5034334;28;20022;-90
2023/11/14 11:10:32;;;;;;;3.85;1.33;;;12.40;94.40;;;;;;5029263;28;20071;-89
2023/11/14 11:13:14;;;;;;;2.65;1.55;;;12.50;94.00;;;;;;5030558;28;20432;-90
2023/11/14 11:15:47;;;;;;;2.80;1.45;;;12.60;92.50;;;;;;5033489;28;20055;-90
2023/11/14 11:18:14;;;;;;;3.22;1.38;;;12.70;94.10;;;;;;5033721;28;20038;-90
2023/11/14 11:20:40;;;;;;;2.60;1.30;;;12.80;91.40;;;;;;5032442;28;20025;-90
2023/11/14 11:23:12;;;;;;;1.92;1.13;;;13.00;90.80;;;;;;5030988;28;21058;-91
2023/11/14 11:25:41;;;;;;;2.78;0.98;;;13.10;90.10;;;;;;5032081;28;20025;-90
2023/11/14 11:28:21;;;;;;;2.80;1.20;;;13.30;88.60;;;;;;5033783;28;20017;-93
2023/11/14 11:31:11;;;;;;;2.55;1.35;;;13.40;87.30;;;;;;5034011;28;20014;-90
2023/11/14 11:33:46;;;;;;;3.22;1.20;;;13.40;86.80;;;;;;5033847;28;20029;-89
2023/11/14 11:36:25;;;;;;;3.00;1.52;;;13.60;87.20;;;;;;5031731;28;20056;-89
2023/11/14 11:39:04;;;;;;;3.00;1.00;;;13.80;83.90;;;;;;5032237;28;20112;-90
2023/11/14 11:41:35;;;;;;;3.75;1.20;;;13.90;84.90;;;;;;5029233;28;20021;-95
2023/11/14 11:44:10;;;;;;;2.65;1.48;;;13.80;84.50;;;;;;5038692;28;20055;-93
2023/11/14 11:46:44;;;;;;;3.42;1.10;;;13.70;86.00;;;;;;5038351;28;20026;-87
2023/11/14 11:49:12;;;;;;;1.95;0.90;;;13.60;85.90;;;;;;5040790;28;20030;-90
2023/11/14 11:51:43;;;;;;;15.95;1.25;;;13.60;84.30;;;;;;5038968;28;20014;-89
2023/11/14 11:54:27;;;;;;;3.40;1.13;;;13.50;85.90;;;;;;5049180;28;20047;-89
2023/11/14 11:57:05;;;;;;;2.40;1.27;;;13.60;84.70;;;;;;5042383;28;20133;-89
2023/11/14 11:59:51;;;;;;;2.22;1.30;;;13.80;85.80;;;;;;5038039;28;20025;-88
2023/11/14 12:02:23;;;;;;;6.20;1.30;;;13.90;82.40;;;;;;5038873;28;20045;-90
2023/11/14 12:04:52;;;;;;;1.80;0.77;;;14.00;83.30;;;;;;5038844;28;20088;-90
2023/11/14 12:07:18;;;;;;;3.53;1.33;;;14.20;82.10;;;;;;5019957;28;20387;-91
2023/11/14 12:09:47;;;;;;;2.13;0.93;;;14.30;80.30;;;;;;5048014;28;20041;-89
2023/11/14 12:12:14;;;;;;;3.75;1.25;;;14.50;80.60;;;;;;5046988;28;20049;-89
2023/11/14 12:14:43;;;;;;;2.97;0.98;;;14.30;81.50;;;;;;5037221;28;20025;-90
2023/11/14 12:17:08;;;;;;;1.83;1.15;;;14.10;83.70;;;;;;5037523;28;20108;-90
2023/11/14 12:19:34;;;;;;;4.50;1.35;;;14.00;84.20;;;;;;5040695;28;20048;-88
2023/11/14 12:22:05;;;;;;;5.78;1.13;;;13.80;82.30;;;;;;5057228;28;20021;-90
2023/11/14 12:24:32;;;;;;;3.30;1.08;;;13.70;83.10;;;;;;5037682;28;20065;-89
2023/11/14 12:26:57;;;;;;;2.65;1.10;;;13.60;84.00;;;;;;5045448;28;20026;-88
2023/11/14 12:29:23;;;;;;;4.15;1.38;;;13.60;84.30;;;;;;5035758;28;20025;-90
2023/11/14 12:31:52;;;;;;;3.47;0.95;;;13.60;84.50;;;;;;5035861;28;20377;-91
2023/11/14 12:34:29;;;;;;;3.53;1.48;;;13.50;84.50;;;;;;5046759;28;20043;-90
2023/11/14 12:37:16;;;;;;;4.53;1.45;;;13.50;84.80;;;;;;5048678;28;20021;-90
2023/11/14 12:40:00;;;;;;;1.60;1.08;;;13.50;84.50;;;;;;5029763;28;20021;-89
2023/11/14 12:42:32;;;;;;;5.35;1.38;;;13.50;85.40;;;;;;5027637;28;20021;-90
2023/11/14 12:44:59;;;;;;;3.38;1.35;;;13.30;84.30;;;;;;5029898;28;20021;-89
2023/11/14 12:47:26;;;;;;;3.08;1.05;;;13.30;84.40;;;;;;5016085;28;20492;-90
2023/11/14 12:49:51;;;;;;;5.40;1.42;;;13.30;85.20;;;;;;5031260;28;20037;-89